PWSweather.com
Personal Weather Stations
Station Observations
REUBENS
Camas Prairie, Reubens, ID

Camas PrairieReubens, ID

Lat: 46.35417, Lon: -116.53167

Elevation: 3480

Station Type: Davis VantagePro 2

http://www.theobrienranch.com/wx/wx.htm

High Low Average
Temperature 42.3°F5.7°C 25.3°F-3.7°C 31.1°F-0.5°C
Dew Point 19.4°F-7.0°C 13.8°F-10.1°C 16.3°F-8.7°C
Winds 15.8 mph 25.4 kmh 0.9 mph 1.4 kmh 9.0 mph E14.5 kmh E
Wind Gusts 19.0 mph30.6 kmh 3.0 mph4.8 kmh 12.0 mph19.3 kmh
Humidity 65% 37% 55%
Pressure 30.10 in1019.3 mb 29.84 in1010.5 mb -
Precipitation 0.00 in0.0 mm - -
Hour Temp Dew Point Humidity Winds Wind Gusts Pressure Precip Precip Rate Daily Precip Total
12:00 AM 30.5°F-0.8°C 19.4°F-7.0°C 63% 15.8 mph ENE25.4 kmh ENE 17.0 mph27.4 kmh 29.84 in1010.5 mb 0.00 in0.0 mm 0.00 in/hr0.0 mm/hr 0.00 in0.0 mm
12:30 AM 29.7°F-1.3°C 19.0°F-7.2°C 64% 13.4 mph E21.6 kmh E 14.0 mph22.5 kmh 29.86 in1011.2 mb 0.00 in0.0 mm 0.00 in/hr0.0 mm/hr 0.00 in0.0 mm
01:00 AM 29.3°F-1.5°C 18.6°F-7.4°C 64% 13.3 mph ENE21.4 kmh ENE 14.0 mph22.5 kmh 29.86 in1011.2 mb 0.00 in0.0 mm 0.00 in/hr0.0 mm/hr 0.00 in0.0 mm
01:30 AM 28.8°F-1.8°C 18.2°F-7.7°C 64% 12.4 mph ENE20.0 kmh ENE 14.0 mph22.5 kmh 29.87 in1011.5 mb 0.00 in0.0 mm 0.00 in/hr0.0 mm/hr 0.00 in0.0 mm
02:00 AM 28.2°F-2.1°C 18.0°F-7.8°C 65% 11.7 mph E18.8 kmh E 13.0 mph20.9 kmh 29.88 in1011.9 mb 0.00 in0.0 mm 0.00 in/hr0.0 mm/hr 0.00 in0.0 mm
02:30 AM 27.8°F-2.3°C 17.6°F-8.0°C 65% 12.7 mph ENE20.4 kmh ENE 14.0 mph22.5 kmh 29.88 in1011.9 mb 0.00 in0.0 mm 0.00 in/hr0.0 mm/hr 0.00 in0.0 mm
03:00 AM 27.5°F-2.5°C 16.5°F-8.6°C 63% 11.8 mph ENE19.0 kmh ENE 13.0 mph20.9 kmh 29.88 in1011.9 mb 0.00 in0.0 mm 0.00 in/hr0.0 mm/hr 0.00 in0.0 mm
03:30 AM 27.5°F-2.5°C 15.8°F-9.0°C 61% 14.4 mph ENE23.2 kmh ENE 17.0 mph27.4 kmh 29.89 in1012.2 mb 0.00 in0.0 mm 0.00 in/hr0.0 mm/hr 0.00 in0.0 mm
04:00 AM 27.5°F-2.5°C 15.4°F-9.2°C 60% 14.6 mph ENE23.5 kmh ENE 18.0 mph29.0 kmh 29.91 in1012.9 mb 0.00 in0.0 mm 0.00 in/hr0.0 mm/hr 0.00 in0.0 mm
04:30 AM 27.0°F-2.8°C 15.3°F-9.3°C 61% 12.4 mph ENE20.0 kmh ENE 17.0 mph27.4 kmh 29.93 in1013.5 mb 0.00 in0.0 mm 0.00 in/hr0.0 mm/hr 0.00 in0.0 mm
05:00 AM 26.6°F-3.0°C 15.4°F-9.2°C 62% 12.4 mph ENE20.0 kmh ENE 14.0 mph22.5 kmh 29.95 in1014.2 mb 0.00 in0.0 mm 0.00 in/hr0.0 mm/hr 0.00 in0.0 mm
05:30 AM 26.3°F-3.2°C 15.0°F-9.4°C 62% 11.3 mph ENE18.2 kmh ENE 13.0 mph20.9 kmh 29.96 in1014.6 mb 0.00 in0.0 mm 0.00 in/hr0.0 mm/hr 0.00 in0.0 mm
06:00 AM 25.6°F-3.6°C 15.1°F-9.4°C 64% 6.7 mph NE10.8 kmh NE 10.0 mph16.1 kmh 29.99 in1015.6 mb 0.00 in0.0 mm 0.00 in/hr0.0 mm/hr 0.00 in0.0 mm
06:30 AM 25.3°F-3.7°C 14.5°F-9.7°C 63% 8.6 mph ENE13.8 kmh ENE 12.0 mph19.3 kmh 30.00 in1015.9 mb 0.00 in0.0 mm 0.00 in/hr0.0 mm/hr 0.00 in0.0 mm
07:00 AM 26.3°F-3.2°C 14.7°F-9.6°C 61% 6.6 mph E10.6 kmh E 8.0 mph12.9 kmh 30.02 in1016.6 mb 0.00 in0.0 mm 0.00 in/hr0.0 mm/hr 0.00 in0.0 mm
07:30 AM 26.7°F-2.9°C 14.7°F-9.6°C 60% 8.7 mph ENE14.0 kmh ENE 10.0 mph16.1 kmh 30.02 in1016.6 mb 0.00 in0.0 mm 0.00 in/hr0.0 mm/hr 0.00 in0.0 mm
08:00 AM 27.6°F-2.4°C 14.3°F-9.8°C 57% 12.4 mph ENE20.0 kmh ENE 15.0 mph24.1 kmh 30.04 in1017.3 mb 0.00 in0.0 mm 0.00 in/hr0.0 mm/hr 0.00 in0.0 mm
08:30 AM 28.3°F-2.1°C 13.8°F-10.1°C 54% 13.5 mph ENE21.7 kmh ENE 16.0 mph25.7 kmh 30.05 in1017.6 mb 0.00 in0.0 mm 0.00 in/hr0.0 mm/hr 0.00 in0.0 mm
09:00 AM 29.0°F-1.7°C 13.9°F-10.1°C 53% 14.5 mph ENE23.3 kmh ENE 19.0 mph30.6 kmh 30.06 in1017.9 mb 0.00 in0.0 mm 0.00 in/hr0.0 mm/hr 0.00 in0.0 mm
09:30 AM 29.6°F-1.3°C 14.1°F-9.9°C 52% 7.2 mph NE11.6 kmh NE 11.0 mph17.7 kmh 30.08 in1018.6 mb 0.00 in0.0 mm 0.00 in/hr0.0 mm/hr 0.00 in0.0 mm
10:00 AM 30.4°F-0.9°C 14.9°F-9.5°C 52% 10.3 mph E16.6 kmh E 11.0 mph17.7 kmh 30.09 in1019.0 mb 0.00 in0.0 mm 0.00 in/hr0.0 mm/hr 0.00 in0.0 mm
10:30 AM 31.0°F-0.6°C 16.2°F-8.8°C 54% 6.7 mph NE10.8 kmh NE 10.0 mph16.1 kmh 30.09 in1019.0 mb 0.00 in0.0 mm 0.00 in/hr0.0 mm/hr 0.00 in0.0 mm
11:00 AM 31.5°F-0.3°C 15.0°F-9.4°C 50% 7.4 mph ENE11.9 kmh ENE 12.0 mph19.3 kmh 30.10 in1019.3 mb 0.00 in0.0 mm 0.00 in/hr0.0 mm/hr 0.00 in0.0 mm
11:30 AM 32.6°F0.3°C 14.6°F-9.7°C 47% 4.3 mph ENE6.9 kmh ENE 5.0 mph8.0 kmh 30.10 in1019.3 mb 0.00 in0.0 mm 0.00 in/hr0.0 mm/hr 0.00 in0.0 mm
12:00 PM 35.4°F1.9°C 19.1°F-7.2°C 51% 3.8 mph NE6.1 kmh NE 11.0 mph17.7 kmh 30.10 in1019.3 mb 0.00 in0.0 mm 0.00 in/hr0.0 mm/hr 0.00 in0.0 mm
12:30 PM 35.3°F1.8°C 15.5°F-9.2°C 44% 3.7 mph ENE6.0 kmh ENE 4.0 mph6.4 kmh 30.10 in1019.3 mb 0.00 in0.0 mm 0.00 in/hr0.0 mm/hr 0.00 in0.0 mm
01:00 PM 36.5°F2.5°C 16.1°F-8.8°C 43% 6.6 mph NE10.6 kmh NE 9.0 mph14.5 kmh 30.10 in1019.3 mb 0.00 in0.0 mm 0.00 in/hr0.0 mm/hr 0.00 in0.0 mm
01:30 PM 40.7°F4.8°C 19.3°F-7.1°C 42% 6.1 mph ENE9.8 kmh ENE 10.0 mph16.1 kmh 30.08 in1018.6 mb 0.00 in0.0 mm 0.00 in/hr0.0 mm/hr 0.00 in0.0 mm
02:00 PM 40.8°F4.9°C 18.3°F-7.6°C 40% 0.9 mph N1.4 kmh N 3.0 mph4.8 kmh 30.08 in1018.6 mb 0.00 in0.0 mm 0.00 in/hr0.0 mm/hr 0.00 in0.0 mm
02:30 PM 41.6°F5.3°C 17.2°F-8.2°C 37% 4.8 mph NE7.7 kmh NE 7.0 mph11.3 kmh 30.09 in1019.0 mb 0.00 in0.0 mm 0.00 in/hr0.0 mm/hr 0.00 in0.0 mm
03:00 PM 42.3°F5.7°C 17.8°F-7.9°C 37% 3.4 mph N5.5 kmh N 6.0 mph9.7 kmh 30.09 in1019.0 mb 0.00 in0.0 mm 0.00 in/hr0.0 mm/hr 0.00 in0.0 mm
03:30 PM 42.0°F5.6°C 17.6°F-8.0°C 37% 2.1 mph NNE3.4 kmh NNE 6.0 mph9.7 kmh 30.10 in1019.3 mb 0.00 in0.0 mm 0.00 in/hr0.0 mm/hr 0.00 in0.0 mm